sensor_id;sensor_type;location;lat;lon;timestamp;P1;durP1;ratioP1;P2;durP2;ratioP2
33006;SDS011;19361;51.598;7.650;2023-07-22T00:02:28;17.67;;;9.20;;
33006;SDS011;19361;51.598;7.650;2023-07-22T00:07:50;11.25;;;9.43;;
33006;SDS011;19361;51.598;7.650;2023-07-22T00:13:12;11.35;;;8.93;;
33006;SDS011;19361;51.598;7.650;2023-07-22T00:18:33;12.07;;;9.63;;
33006;SDS011;19361;51.598;7.650;2023-07-22T00:23:54;13.45;;;9.75;;
33006;SDS011;19361;51.598;7.650;2023-07-22T00:29:15;13.55;;;9.65;;
33006;SDS011;19361;51.598;7.650;2023-07-22T00:34:37;11.85;;;10.07;;
33006;SDS011;19361;51.598;7.650;2023-07-22T00:39:58;11.52;;;9.48;;
33006;SDS011;19361;51.598;7.650;2023-07-22T00:45:19;10.95;;;8.88;;
33006;SDS011;19361;51.598;7.650;2023-07-22T00:50:40;9.80;;;7.95;;
33006;SDS011;19361;51.598;7.650;2023-07-22T00:56:01;9.77;;;8.63;;
33006;SDS011;19361;51.598;7.650;2023-07-22T01:01:23;11.82;;;9.40;;
33006;SDS011;19361;51.598;7.650;2023-07-22T01:06:44;11.20;;;8.45;;
33006;SDS011;19361;51.598;7.650;2023-07-22T01:12:07;12.57;;;8.75;;
33006;SDS011;19361;51.598;7.650;2023-07-22T01:17:31;10.55;;;9.20;;
33006;SDS011;19361;51.598;7.650;2023-07-22T01:22:52;10.60;;;8.85;;
33006;SDS011;19361;51.598;7.650;2023-07-22T01:28:14;9.68;;;8.68;;
33006;SDS011;19361;51.598;7.650;2023-07-22T01:33:35;9.32;;;8.38;;
33006;SDS011;19361;51.598;7.650;2023-07-22T01:38:58;18.25;;;12.45;;
33006;SDS011;19361;51.598;7.650;2023-07-22T01:44:21;23.67;;;18.75;;
33006;SDS011;19361;51.598;7.650;2023-07-22T01:49:42;27.58;;;22.10;;
33006;SDS011;19361;51.598;7.650;2023-07-22T01:55:04;24.73;;;20.73;;
33006;SDS011;19361;51.598;7.650;2023-07-22T02:00:26;27.95;;;21.33;;
33006;SDS011;19361;51.598;7.650;2023-07-22T02:05:47;23.20;;;18.90;;
33006;SDS011;19361;51.598;7.650;2023-07-22T02:11:08;22.92;;;18.52;;
33006;SDS011;19361;51.598;7.650;2023-07-22T02:16:31;19.75;;;14.75;;
33006;SDS011;19361;51.598;7.650;2023-07-22T02:21:52;16.33;;;12.70;;
33006;SDS011;19361;51.598;7.650;2023-07-22T02:27:13;17.67;;;13.27;;
33006;SDS011;19361;51.598;7.650;2023-07-22T02:32:34;15.75;;;11.43;;
33006;SDS011;19361;51.598;7.650;2023-07-22T02:37:55;16.08;;;10.93;;
33006;SDS011;19361;51.598;7.650;2023-07-22T02:43:16;12.38;;;10.30;;
33006;SDS011;19361;51.598;7.650;2023-07-22T02:48:37;15.15;;;12.18;;
33006;SDS011;19361;51.598;7.650;2023-07-22T02:53:59;16.95;;;11.38;;
33006;SDS011;19361;51.598;7.650;2023-07-22T02:59:20;15.90;;;12.50;;
33006;SDS011;19361;51.598;7.650;2023-07-22T03:04:41;20.17;;;15.18;;
33006;SDS011;19361;51.598;7.650;2023-07-22T03:10:03;25.00;;;17.15;;
33006;SDS011;19361;51.598;7.650;2023-07-22T03:15:27;18.65;;;13.73;;
33006;SDS011;19361;51.598;7.650;2023-07-22T03:20:49;13.95;;;10.68;;
33006;SDS011;19361;51.598;7.650;2023-07-22T03:26:10;13.60;;;10.43;;
33006;SDS011;19361;51.598;7.650;2023-07-22T03:31:31;11.82;;;8.98;;
33006;SDS011;19361;51.598;7.650;2023-07-22T03:36:52;14.73;;;9.57;;
33006;SDS011;19361;51.598;7.650;2023-07-22T03:42:13;14.02;;;8.95;;
33006;SDS011;19361;51.598;7.650;2023-07-22T03:47:34;12.73;;;9.23;;
33006;SDS011;19361;51.598;7.650;2023-07-22T03:52:55;12.45;;;8.38;;
33006;SDS011;19361;51.598;7.650;2023-07-22T03:58:16;11.20;;;8.15;;
33006;SDS011;19361;51.598;7.650;2023-07-22T04:03:37;11.27;;;8.35;;
33006;SDS011;19361;51.598;7.650;2023-07-22T04:08:58;8.80;;;7.70;;
33006;SDS011;19361;51.598;7.650;2023-07-22T04:14:20;10.13;;;7.82;;
33006;SDS011;19361;51.598;7.650;2023-07-22T04:19:41;10.50;;;7.65;;
33006;SDS011;19361;51.598;7.650;2023-07-22T04:25:05;12.88;;;8.43;;
33006;SDS011;19361;51.598;7.650;2023-07-22T04:30:27;9.60;;;8.55;;
33006;SDS011;19361;51.598;7.650;2023-07-22T04:35:48;12.00;;;9.10;;
33006;SDS011;19361;51.598;7.650;2023-07-22T04:41:09;8.35;;;7.55;;
33006;SDS011;19361;51.598;7.650;2023-07-22T04:46:30;10.00;;;7.95;;
33006;SDS011;19361;51.598;7.650;2023-07-22T04:51:51;9.48;;;8.25;;
33006;SDS011;19361;51.598;7.650;2023-07-22T04:57:13;8.98;;;7.75;;
33006;SDS011;19361;51.598;7.650;2023-07-22T05:02:34;9.50;;;7.85;;
33006;SDS011;19361;51.598;7.650;2023-07-22T05:07:55;10.35;;;8.43;;
33006;SDS011;19361;51.598;7.650;2023-07-22T05:13:17;8.82;;;7.97;;
33006;SDS011;19361;51.598;7.650;2023-07-22T05:18:38;8.65;;;7.75;;
33006;SDS011;19361;51.598;7.650;2023-07-22T05:23:59;11.32;;;8.00;;
33006;SDS011;19361;51.598;7.650;2023-07-22T05:29:20;10.30;;;8.05;;
33006;SDS011;19361;51.598;7.650;2023-07-22T05:34:41;10.90;;;7.63;;
33006;SDS011;19361;51.598;7.650;2023-07-22T05:40:02;10.10;;;7.63;;
33006;SDS011;19361;51.598;7.650;2023-07-22T05:45:24;13.60;;;9.13;;
33006;SDS011;19361;51.598;7.650;2023-07-22T05:50:45;9.05;;;8.07;;
33006;SDS011;19361;51.598;7.650;2023-07-22T05:56:06;9.98;;;7.55;;
33006;SDS011;19361;51.598;7.650;2023-07-22T06:01:27;8.98;;;7.40;;
33006;SDS011;19361;51.598;7.650;2023-07-22T06:06:48;8.52;;;7.10;;
33006;SDS011;19361;51.598;7.650;2023-07-22T06:12:10;7.47;;;6.72;;
33006;SDS011;19361;51.598;7.650;2023-07-22T06:17:31;7.10;;;6.40;;
33006;SDS011;19361;51.598;7.650;2023-07-22T06:22:52;7.57;;;6.40;;
33006;SDS011;19361;51.598;7.650;2023-07-22T06:28:13;8.80;;;6.40;;
33006;SDS011;19361;51.598;7.650;2023-07-22T06:33:34;8.82;;;6.65;;
33006;SDS011;19361;51.598;7.650;2023-07-22T06:38:56;6.22;;;5.25;;
33006;SDS011;19361;51.598;7.650;2023-07-22T06:44:17;7.55;;;5.90;;
33006;SDS011;19361;51.598;7.650;2023-07-22T06:49:38;7.00;;;6.30;;
33006;SDS011;19361;51.598;7.650;2023-07-22T06:55:01;7.18;;;5.95;;
33006;SDS011;19361;51.598;7.650;2023-07-22T07:00:22;7.10;;;6.38;;
33006;SDS011;19361;51.598;7.650;2023-07-22T07:05:43;7.30;;;6.28;;
33006;SDS011;19361;51.598;7.650;2023-07-22T07:11:04;7.40;;;6.18;;
33006;SDS011;19361;51.598;7.650;2023-07-22T07:16:26;6.85;;;6.22;;
33006;SDS011;19361;51.598;7.650;2023-07-22T07:21:51;8.25;;;7.13;;
33006;SDS011;19361;51.598;7.650;2023-07-22T07:27:12;10.85;;;6.97;;
33006;SDS011;19361;51.598;7.650;2023-07-22T07:32:34;7.13;;;6.43;;
33006;SDS011;19361;51.598;7.650;2023-07-22T07:37:55;8.05;;;6.32;;
33006;SDS011;19361;51.598;7.650;2023-07-22T07:43:16;7.35;;;6.55;;
33006;SDS011;19361;51.598;7.650;2023-07-22T07:48:37;9.63;;;7.80;;
33006;SDS011;19361;51.598;7.650;2023-07-22T07:53:58;7.95;;;7.05;;
33006;SDS011;19361;51.598;7.650;2023-07-22T07:59:20;17.88;;;7.32;;
33006;SDS011;19361;51.598;7.650;2023-07-22T08:04:41;8.18;;;6.65;;
33006;SDS011;19361;51.598;7.650;2023-07-22T08:10:02;8.25;;;7.40;;
33006;SDS011;19361;51.598;7.650;2023-07-22T08:15:25;8.48;;;6.63;;
33006;SDS011;19361;51.598;7.650;2023-07-22T08:20:48;10.77;;;7.72;;
33006;SDS011;19361;51.598;7.650;2023-07-22T08:26:09;7.93;;;7.18;;
33006;SDS011;19361;51.598;7.650;2023-07-22T08:31:30;7.60;;;6.80;;
33006;SDS011;19361;51.598;7.650;2023-07-22T08:36:51;9.45;;;7.13;;
33006;SDS011;19361;51.598;7.650;2023-07-22T08:42:13;8.75;;;7.10;;
33006;SDS011;19361;51.598;7.650;2023-07-22T08:47:36;7.65;;;6.90;;
33006;SDS011;19361;51.598;7.650;2023-07-22T08:53:05;7.93;;;6.75;;
33006;SDS011;19361;51.598;7.650;2023-07-22T08:58:26;12.38;;;6.63;;
33006;SDS011;19361;51.598;7.650;2023-07-22T09:03:49;8.23;;;6.50;;
33006;SDS011;19361;51.598;7.650;2023-07-22T09:09:13;6.15;;;5.35;;
33006;SDS011;19361;51.598;7.650;2023-07-22T09:14:35;6.57;;;5.85;;
33006;SDS011;19361;51.598;7.650;2023-07-22T09:19:59;8.18;;;5.43;;
33006;SDS011;19361;51.598;7.650;2023-07-22T09:25:23;5.93;;;5.25;;
33006;SDS011;19361;51.598;7.650;2023-07-22T09:30:46;4.90;;;4.50;;
33006;SDS011;19361;51.598;7.650;2023-07-22T09:36:09;5.53;;;5.03;;
33006;SDS011;19361;51.598;7.650;2023-07-22T09:41:31;6.15;;;5.20;;
33006;SDS011;19361;51.598;7.650;2023-07-22T09:46:52;5.80;;;5.07;;
33006;SDS011;19361;51.598;7.650;2023-07-22T09:52:14;5.85;;;4.55;;
33006;SDS011;19361;51.598;7.650;2023-07-22T09:57:35;5.40;;;4.90;;
33006;SDS011;19361;51.598;7.650;2023-07-22T10:02:57;5.50;;;5.00;;
33006;SDS011;19361;51.598;7.650;2023-07-22T10:08:20;6.55;;;5.10;;
33006;SDS011;19361;51.598;7.650;2023-07-22T10:13:45;5.10;;;4.60;;
33006;SDS011;19361;51.598;7.650;2023-07-22T10:19:06;5.00;;;4.60;;
33006;SDS011;19361;51.598;7.650;2023-07-22T10:24:29;5.32;;;4.82;;
33006;SDS011;19361;51.598;7.650;2023-07-22T10:29:51;8.45;;;4.35;;
33006;SDS011;19361;51.598;7.650;2023-07-22T10:40:52;7.57;;;6.28;;
33006;SDS011;19361;51.598;7.650;2023-07-22T10:46:14;4.97;;;4.18;;
33006;SDS011;19361;51.598;7.650;2023-07-22T10:51:36;5.22;;;4.72;;
33006;SDS011;19361;51.598;7.650;2023-07-22T10:56:58;5.47;;;4.57;;
33006;SDS011;19361;51.598;7.650;2023-07-22T11:02:28;4.97;;;4.50;;
33006;SDS011;19361;51.598;7.650;2023-07-22T11:07:50;4.05;;;3.67;;
33006;SDS011;19361;51.598;7.650;2023-07-22T11:13:12;8.20;;;3.80;;
33006;SDS011;19361;51.598;7.650;2023-07-22T11:18:35;6.00;;;4.43;;
33006;SDS011;19361;51.598;7.650;2023-07-22T11:24:02;6.00;;;4.18;;
33006;SDS011;19361;51.598;7.650;2023-07-22T11:29:25;4.70;;;4.15;;
33006;SDS011;19361;51.598;7.650;2023-07-22T11:34:46;4.40;;;4.00;;
33006;SDS011;19361;51.598;7.650;2023-07-22T11:40:11;3.88;;;3.47;;
33006;SDS011;19361;51.598;7.650;2023-07-22T11:45:33;6.88;;;4.15;;
33006;SDS011;19361;51.598;7.650;2023-07-22T11:50:58;4.63;;;3.83;;
33006;SDS011;19361;51.598;7.650;2023-07-22T11:56:20;4.15;;;3.78;;
33006;SDS011;19361;51.598;7.650;2023-07-22T12:01:44;5.32;;;4.07;;
33006;SDS011;19361;51.598;7.650;2023-07-22T12:07:06;4.35;;;3.95;;
33006;SDS011;19361;51.598;7.650;2023-07-22T12:12:47;4.47;;;4.03;;
33006;SDS011;19361;51.598;7.650;2023-07-22T12:18:09;6.63;;;3.90;;
33006;SDS011;19361;51.598;7.650;2023-07-22T12:23:30;3.20;;;2.90;;
33006;SDS011;19361;51.598;7.650;2023-07-22T12:28:52;3.20;;;2.90;;
33006;SDS011;19361;51.598;7.650;2023-07-22T12:34:13;3.33;;;3.00;;
33006;SDS011;19361;51.598;7.650;2023-07-22T12:39:34;6.63;;;3.50;;
33006;SDS011;19361;51.598;7.650;2023-07-22T12:44:56;4.07;;;2.60;;
33006;SDS011;19361;51.598;7.650;2023-07-22T12:50:17;3.17;;;2.90;;
33006;SDS011;19361;51.598;7.650;2023-07-22T12:55:38;3.63;;;2.47;;
33006;SDS011;19361;51.598;7.650;2023-07-22T13:00:59;2.50;;;2.30;;
33006;SDS011;19361;51.598;7.650;2023-07-22T13:06:20;2.90;;;2.55;;
33006;SDS011;19361;51.598;7.650;2023-07-22T13:11:42;3.25;;;2.53;;
33006;SDS011;19361;51.598;7.650;2023-07-22T13:17:03;2.95;;;2.65;;
33006;SDS011;19361;51.598;7.650;2023-07-22T13:22:24;2.85;;;2.50;;
33006;SDS011;19361;51.598;7.650;2023-07-22T13:27:45;5.03;;;2.53;;
33006;SDS011;19361;51.598;7.650;2023-07-22T13:33:06;4.95;;;2.50;;
33006;SDS011;19361;51.598;7.650;2023-07-22T13:38:27;5.32;;;2.42;;
33006;SDS011;19361;51.598;7.650;2023-07-22T13:43:48;3.70;;;2.58;;
33006;SDS011;19361;51.598;7.650;2023-07-22T13:49:09;2.17;;;2.00;;
33006;SDS011;19361;51.598;7.650;2023-07-22T13:54:31;3.03;;;2.35;;
33006;SDS011;19361;51.598;7.650;2023-07-22T13:59:52;3.03;;;2.47;;
33006;SDS011;19361;51.598;7.650;2023-07-22T14:05:13;2.35;;;2.15;;
33006;SDS011;19361;51.598;7.650;2023-07-22T14:10:34;2.63;;;2.42;;
33006;SDS011;19361;51.598;7.650;2023-07-22T14:15:56;3.25;;;2.53;;
33006;SDS011;19361;51.598;7.650;2023-07-22T14:21:17;4.78;;;2.85;;
33006;SDS011;19361;51.598;7.650;2023-07-22T14:26:38;3.53;;;2.83;;
33006;SDS011;19361;51.598;7.650;2023-07-22T14:31:59;4.72;;;2.40;;
33006;SDS011;19361;51.598;7.650;2023-07-22T14:37:20;5.00;;;2.63;;
33006;SDS011;19361;51.598;7.650;2023-07-22T14:42:41;2.80;;;2.60;;
33006;SDS011;19361;51.598;7.650;2023-07-22T14:48:03;5.95;;;2.42;;
33006;SDS011;19361;51.598;7.650;2023-07-22T14:53:25;3.65;;;2.30;;
33006;SDS011;19361;51.598;7.650;2023-07-22T14:58:46;4.03;;;2.67;;
33006;SDS011;19361;51.598;7.650;2023-07-22T15:04:09;2.95;;;2.75;;
33006;SDS011;19361;51.598;7.650;2023-07-22T15:09:30;3.72;;;2.78;;
33006;SDS011;19361;51.598;7.650;2023-07-22T15:14:51;3.45;;;2.60;;
33006;SDS011;19361;51.598;7.650;2023-07-22T15:20:13;2.85;;;2.60;;
33006;SDS011;19361;51.598;7.650;2023-07-22T15:25:34;2.40;;;2.17;;
33006;SDS011;19361;51.598;7.650;2023-07-22T15:30:55;3.88;;;2.55;;
33006;SDS011;19361;51.598;7.650;2023-07-22T15:36:16;2.70;;;2.42;;
33006;SDS011;19361;51.598;7.650;2023-07-22T15:41:37;4.45;;;2.65;;
33006;SDS011;19361;51.598;7.650;2023-07-22T15:46:59;4.80;;;2.75;;
33006;SDS011;19361;51.598;7.650;2023-07-22T15:52:20;3.20;;;2.65;;
33006;SDS011;19361;51.598;7.650;2023-07-22T15:57:42;4.90;;;2.80;;
33006;SDS011;19361;51.598;7.650;2023-07-22T16:03:03;3.40;;;2.78;;
33006;SDS011;19361;51.598;7.650;2023-07-22T16:08:24;5.20;;;2.90;;
33006;SDS011;19361;51.598;7.650;2023-07-22T16:13:45;3.40;;;2.97;;
33006;SDS011;19361;51.598;7.650;2023-07-22T16:19:06;4.15;;;3.28;;
33006;SDS011;19361;51.598;7.650;2023-07-22T16:24:27;3.08;;;2.85;;
33006;SDS011;19361;51.598;7.650;2023-07-22T16:29:48;4.35;;;3.75;;
33006;SDS011;19361;51.598;7.650;2023-07-22T16:35:09;4.00;;;3.30;;
33006;SDS011;19361;51.598;7.650;2023-07-22T16:40:31;5.25;;;3.50;;
33006;SDS011;19361;51.598;7.650;2023-07-22T16:45:52;7.35;;;3.67;;
33006;SDS011;19361;51.598;7.650;2023-07-22T16:51:13;4.65;;;3.20;;
33006;SDS011;19361;51.598;7.650;2023-07-22T16:56:35;3.55;;;3.08;;
33006;SDS011;19361;51.598;7.650;2023-07-22T17:01:56;6.03;;;3.47;;
33006;SDS011;19361;51.598;7.650;2023-07-22T17:07:17;8.38;;;3.17;;
33006;SDS011;19361;51.598;7.650;2023-07-22T17:12:39;7.43;;;2.92;;
33006;SDS011;19361;51.598;7.650;2023-07-22T17:18:00;3.90;;;2.58;;
33006;SDS011;19361;51.598;7.650;2023-07-22T17:23:22;6.32;;;2.70;;
33006;SDS011;19361;51.598;7.650;2023-07-22T17:28:43;5.25;;;2.60;;
33006;SDS011;19361;51.598;7.650;2023-07-22T17:34:04;5.97;;;2.42;;
33006;SDS011;19361;51.598;7.650;2023-07-22T17:39:25;2.40;;;2.20;;
33006;SDS011;19361;51.598;7.650;2023-07-22T17:44:46;6.50;;;2.15;;
33006;SDS011;19361;51.598;7.650;2023-07-22T17:50:07;3.35;;;2.75;;
33006;SDS011;19361;51.598;7.650;2023-07-22T17:55:30;3.58;;;2.00;;
33006;SDS011;19361;51.598;7.650;2023-07-22T18:00:51;2.30;;;1.85;;
33006;SDS011;19361;51.598;7.650;2023-07-22T18:06:12;2.97;;;1.90;;
33006;SDS011;19361;51.598;7.650;2023-07-22T18:11:35;2.47;;;2.10;;
33006;SDS011;19361;51.598;7.650;2023-07-22T18:16:56;2.75;;;2.20;;
33006;SDS011;19361;51.598;7.650;2023-07-22T18:22:17;4.03;;;2.50;;
33006;SDS011;19361;51.598;7.650;2023-07-22T18:27:38;2.67;;;2.40;;
33006;SDS011;19361;51.598;7.650;2023-07-22T18:32:59;6.22;;;3.50;;
33006;SDS011;19361;51.598;7.650;2023-07-22T18:38:20;4.38;;;2.80;;
33006;SDS011;19361;51.598;7.650;2023-07-22T18:43:41;5.57;;;3.22;;
33006;SDS011;19361;51.598;7.650;2023-07-22T18:49:04;6.45;;;3.55;;
33006;SDS011;19361;51.598;7.650;2023-07-22T18:54:25;3.42;;;3.00;;
33006;SDS011;19361;51.598;7.650;2023-07-22T18:59:46;6.82;;;2.92;;
33006;SDS011;19361;51.598;7.650;2023-07-22T19:05:07;4.57;;;3.03;;
33006;SDS011;19361;51.598;7.650;2023-07-22T19:10:29;5.28;;;2.90;;
33006;SDS011;19361;51.598;7.650;2023-07-22T19:15:50;3.40;;;2.90;;
33006;SDS011;19361;51.598;7.650;2023-07-22T19:21:13;3.33;;;2.63;;
33006;SDS011;19361;51.598;7.650;2023-07-22T19:26:34;2.58;;;2.35;;
33006;SDS011;19361;51.598;7.650;2023-07-22T19:31:56;4.03;;;2.85;;
33006;SDS011;19361;51.598;7.650;2023-07-22T19:37:17;2.97;;;2.67;;
33006;SDS011;19361;51.598;7.650;2023-07-22T19:42:41;4.00;;;3.15;;
33006;SDS011;19361;51.598;7.650;2023-07-22T19:48:02;4.25;;;2.80;;
33006;SDS011;19361;51.598;7.650;2023-07-22T19:53:23;7.30;;;2.83;;
33006;SDS011;19361;51.598;7.650;2023-07-22T19:58:45;5.72;;;2.83;;
33006;SDS011;19361;51.598;7.650;2023-07-22T20:04:06;3.08;;;2.72;;
33006;SDS011;19361;51.598;7.650;2023-07-22T20:09:27;3.05;;;2.75;;
33006;SDS011;19361;51.598;7.650;2023-07-22T20:14:48;4.38;;;2.50;;
33006;SDS011;19361;51.598;7.650;2023-07-22T20:20:09;3.40;;;2.90;;
33006;SDS011;19361;51.598;7.650;2023-07-22T20:25:30;3.38;;;2.95;;
33006;SDS011;19361;51.598;7.650;2023-07-22T20:30:51;6.32;;;3.10;;
33006;SDS011;19361;51.598;7.650;2023-07-22T20:36:13;4.03;;;2.90;;
33006;SDS011;19361;51.598;7.650;2023-07-22T20:41:34;5.55;;;3.38;;
33006;SDS011;19361;51.598;7.650;2023-07-22T20:46:55;5.35;;;3.00;;
33006;SDS011;19361;51.598;7.650;2023-07-22T20:52:16;3.17;;;2.78;;
33006;SDS011;19361;51.598;7.650;2023-07-22T20:57:37;3.15;;;2.65;;
33006;SDS011;19361;51.598;7.650;2023-07-22T21:02:58;4.97;;;3.00;;
33006;SDS011;19361;51.598;7.650;2023-07-22T21:08:19;3.60;;;2.85;;
33006;SDS011;19361;51.598;7.650;2023-07-22T21:13:41;3.25;;;2.75;;
33006;SDS011;19361;51.598;7.650;2023-07-22T21:19:02;3.17;;;2.88;;
33006;SDS011;19361;51.598;7.650;2023-07-22T21:24:23;3.95;;;2.80;;
33006;SDS011;19361;51.598;7.650;2023-07-22T21:29:44;3.90;;;2.50;;
33006;SDS011;19361;51.598;7.650;2023-07-22T21:35:06;3.58;;;2.67;;
33006;SDS011;19361;51.598;7.650;2023-07-22T21:40:27;3.00;;;2.67;;
33006;SDS011;19361;51.598;7.650;2023-07-22T21:45:48;4.53;;;2.80;;
33006;SDS011;19361;51.598;7.650;2023-07-22T21:51:12;3.58;;;2.78;;
33006;SDS011;19361;51.598;7.650;2023-07-22T21:56:33;5.03;;;2.70;;
33006;SDS011;19361;51.598;7.650;2023-07-22T22:01:54;8.00;;;3.00;;
33006;SDS011;19361;51.598;7.650;2023-07-22T22:07:15;3.50;;;3.20;;
33006;SDS011;19361;51.598;7.650;2023-07-22T22:12:36;6.00;;;3.33;;
33006;SDS011;19361;51.598;7.650;2023-07-22T22:17:58;3.67;;;3.05;;
33006;SDS011;19361;51.598;7.650;2023-07-22T22:23:19;5.57;;;3.50;;
33006;SDS011;19361;51.598;7.650;2023-07-22T22:28:40;10.57;;;3.70;;
33006;SDS011;19361;51.598;7.650;2023-07-22T22:34:01;4.15;;;3.40;;
33006;SDS011;19361;51.598;7.650;2023-07-22T22:39:22;7.68;;;3.33;;
33006;SDS011;19361;51.598;7.650;2023-07-22T22:44:43;6.25;;;3.70;;
33006;SDS011;19361;51.598;7.650;2023-07-22T22:50:04;3.90;;;3.08;;
33006;SDS011;19361;51.598;7.650;2023-07-22T22:55:26;3.63;;;3.00;;
33006;SDS011;19361;51.598;7.650;2023-07-22T23:00:47;6.25;;;3.50;;
33006;SDS011;19361;51.598;7.650;2023-07-22T23:06:16;5.28;;;3.42;;
33006;SDS011;19361;51.598;7.650;2023-07-22T23:11:39;6.30;;;3.85;;
33006;SDS011;19361;51.598;7.650;2023-07-22T23:17:00;5.32;;;3.45;;
33006;SDS011;19361;51.598;7.650;2023-07-22T23:22:21;4.55;;;3.33;;
33006;SDS011;19361;51.598;7.650;2023-07-22T23:27:42;6.20;;;3.90;;
33006;SDS011;19361;51.598;7.650;2023-07-22T23:33:03;6.30;;;4.03;;
33006;SDS011;19361;51.598;7.650;2023-07-22T23:38:24;9.82;;;4.13;;
33006;SDS011;19361;51.598;7.650;2023-07-22T23:43:46;8.32;;;4.32;;
33006;SDS011;19361;51.598;7.650;2023-07-22T23:49:07;6.20;;;4.00;;
33006;SDS011;19361;51.598;7.650;2023-07-22T23:54:28;4.35;;;3.95;;
33006;SDS011;19361;51.598;7.650;2023-07-22T23:59:49;6.00;;;4.05;;
